Time;durP1;ratioP1;P1;durP2;ratioP2;P2;SDS_P1;SDS_P2;PMS_P1;PMS_P2;Temp;Humidity;BMP_temperature;BMP_pressure;BME280_temperature;BME280_humidity;BME280_pressure;Samples;Min_cycle;Max_cycle;Signal;HPM_P1;HPM_P2
2022/04/25 00:02:42;;;;;;;0.70;0.70;;;;;;;;;;5047350;28;20213;-56
2022/04/25 00:05:31;;;;;;;0.40;0.40;;;;;;;;;;5048158;28;20247;-58
2022/04/25 00:08:18;;;;;;;0.70;0.70;;;;;;;;;;5047819;28;20316;-56
2022/04/25 00:11:05;;;;;;;0.60;0.60;;;;;;;;;;5048811;28;20243;-57
2022/04/25 00:13:52;;;;;;;0.70;0.70;;;;;;;;;;5051488;28;20380;-56
2022/04/25 00:16:39;;;;;;;0.60;0.60;;;;;;;;;;5052201;28;20292;-56
2022/04/25 00:19:26;;;;;;;1.03;0.60;;;;;;;;;;5055734;28;20689;-57
2022/04/25 00:22:15;;;;;;;0.60;0.60;;;;;;;;;;5054461;28;20215;-56
2022/04/25 00:25:02;;;;;;;0.53;0.53;;;;;;;;;;5051692;28;20219;-56
2022/04/25 00:27:49;;;;;;;0.50;0.50;;;;;;;;;;5059216;28;20224;-57
2022/04/25 00:30:36;;;;;;;0.60;0.60;;;;;;;;;;5054185;28;20726;-55
2022/04/25 00:33:23;;;;;;;0.70;0.70;;;;;;;;;;5056019;28;20753;-57
2022/04/25 00:36:10;;;;;;;0.67;0.67;;;;;;;;;;5050330;28;20678;-56
2022/04/25 00:38:58;;;;;;;0.60;0.60;;;;;;;;;;5050725;28;20703;-56
2022/04/25 00:41:45;;;;;;;0.60;0.60;;;;;;;;;;5049804;28;20670;-56
2022/04/25 00:44:32;;;;;;;0.57;0.57;;;;;;;;;;5053281;28;20295;-56
2022/04/25 00:47:20;;;;;;;1.80;0.60;;;;;;;;;;5031043;28;20709;-56
2022/04/25 00:50:08;;;;;;;0.60;0.60;;;;;;;;;;5031928;28;20292;-56
2022/04/25 00:52:55;;;;;;;0.83;0.83;;;;;;;;;;5039089;28;20232;-55
2022/04/25 00:55:43;;;;;;;0.60;0.60;;;;;;;;;;5034007;28;20205;-66
2022/04/25 00:58:31;;;;;;;0.70;0.70;;;;;;;;;;5036499;28;20239;-55
2022/04/25 01:01:18;;;;;;;0.60;0.60;;;;;;;;;;5035776;28;20290;-61
2022/04/25 01:04:05;;;;;;;0.80;0.80;;;;;;;;;;5033505;28;20216;-60
2022/04/25 01:06:52;;;;;;;0.63;0.63;;;;;;;;;;5031138;28;20216;-60
2022/04/25 01:09:39;;;;;;;0.47;0.47;;;;;;;;;;5034472;28;20231;-61
2022/04/25 01:12:28;;;;;;;0.63;0.63;;;;;;;;;;5034773;28;20684;-61
2022/04/25 01:15:15;;;;;;;0.60;0.60;;;;;;;;;;5036216;28;20558;-61
2022/04/25 01:18:02;;;;;;;0.60;0.60;;;;;;;;;;5033113;28;20289;-61
2022/04/25 01:20:50;;;;;;;0.80;0.80;;;;;;;;;;5036916;28;20208;-61
2022/04/25 01:29:48;;;;;;;0.63;0.63;;;;;;;;;;5032104;28;20236;-61
2022/04/25 01:32:35;;;;;;;0.70;0.70;;;;;;;;;;5029977;28;20256;-61
2022/04/25 01:35:22;;;;;;;0.63;0.63;;;;;;;;;;5033068;28;20295;-61
2022/04/25 01:38:09;;;;;;;0.60;0.60;;;;;;;;;;5035933;28;20308;-61
2022/04/25 01:40:58;;;;;;;0.60;0.60;;;;;;;;;;5034826;28;20295;-60
2022/04/25 01:43:45;;;;;;;1.70;0.70;;;;;;;;;;5032113;28;20222;-61
2022/04/25 01:46:32;;;;;;;0.60;0.60;;;;;;;;;;5045502;28;20581;-61
2022/04/25 01:49:19;;;;;;;0.70;0.70;;;;;;;;;;5051594;28;20718;-61
2022/04/25 01:52:09;;;;;;;0.67;0.67;;;;;;;;;;5055899;28;20746;-61
2022/04/25 01:54:56;;;;;;;0.60;0.60;;;;;;;;;;5049853;28;20691;-61
2022/04/25 01:57:45;;;;;;;0.60;0.60;;;;;;;;;;5050687;28;20238;-63
2022/04/25 02:00:33;;;;;;;0.53;0.53;;;;;;;;;;5049618;28;20230;-61
2022/04/25 02:03:20;;;;;;;0.60;0.60;;;;;;;;;;5054562;28;20668;-61
2022/04/25 02:06:06;;;;;;;0.63;0.63;;;;;;;;;;5055261;28;20722;-61
2022/04/25 02:08:55;;;;;;;0.70;0.70;;;;;;;;;;5050085;28;20798;-61
2022/04/25 02:11:42;;;;;;;0.70;0.70;;;;;;;;;;5053362;28;20211;-61
2022/04/25 02:14:30;;;;;;;0.50;0.50;;;;;;;;;;5053385;28;20353;-61
2022/04/25 02:17:17;;;;;;;0.70;0.70;;;;;;;;;;5049165;28;20283;-61
2022/04/25 02:20:05;;;;;;;1.00;1.00;;;;;;;;;;5054060;28;20218;-61
2022/04/25 02:22:51;;;;;;;0.60;0.60;;;;;;;;;;5049779;28;20214;-61
2022/04/25 02:25:38;;;;;;;0.73;0.73;;;;;;;;;;5056246;28;20211;-61
2022/04/25 02:28:25;;;;;;;0.70;0.70;;;;;;;;;;5052403;28;20346;-60
2022/04/25 02:31:14;;;;;;;0.70;0.70;;;;;;;;;;5048736;28;20296;-61
2022/04/25 02:34:01;;;;;;;1.47;0.70;;;;;;;;;;5055207;28;20297;-61
2022/04/25 02:36:48;;;;;;;0.70;0.70;;;;;;;;;;5047372;28;20308;-61
2022/04/25 02:39:35;;;;;;;0.67;0.67;;;;;;;;;;5049871;28;20251;-61
2022/04/25 02:42:22;;;;;;;0.70;0.70;;;;;;;;;;5052738;28;20433;-61
2022/04/25 02:45:11;;;;;;;0.80;0.80;;;;;;;;;;5048200;28;20271;-61
2022/04/25 02:47:59;;;;;;;0.70;0.70;;;;;;;;;;5051991;28;20207;-61
2022/04/25 02:50:47;;;;;;;0.80;0.80;;;;;;;;;;5045757;28;20218;-61
2022/04/25 02:53:34;;;;;;;0.50;0.50;;;;;;;;;;5053839;28;20764;-61
2022/04/25 02:56:21;;;;;;;0.53;0.53;;;;;;;;;;5047777;28;20301;-61
2022/04/25 02:59:08;;;;;;;0.70;0.70;;;;;;;;;;5048620;28;20287;-64
2022/04/25 03:01:55;;;;;;;0.70;0.70;;;;;;;;;;5053020;28;20215;-61
2022/04/25 03:04:43;;;;;;;0.63;0.63;;;;;;;;;;5047934;28;20270;-61
2022/04/25 03:07:30;;;;;;;0.73;0.73;;;;;;;;;;5047424;28;20288;-61
2022/04/25 03:10:17;;;;;;;0.77;0.77;;;;;;;;;;5049062;28;20236;-61
2022/04/25 03:13:06;;;;;;;0.67;0.60;;;;;;;;;;5052271;28;20297;-61
2022/04/25 03:15:54;;;;;;;0.57;0.57;;;;;;;;;;5047287;28;20608;-61
2022/04/25 03:18:40;;;;;;;0.80;0.80;;;;;;;;;;5048843;28;20245;-61
2022/04/25 03:21:29;;;;;;;0.70;0.70;;;;;;;;;;5050779;28;20293;-60
2022/04/25 03:24:16;;;;;;;0.60;0.60;;;;;;;;;;5047233;28;20682;-61
2022/04/25 03:27:04;;;;;;;0.57;0.57;;;;;;;;;;5050649;28;20283;-59
2022/04/25 03:29:51;;;;;;;0.90;0.90;;;;;;;;;;5047186;28;20230;-60
2022/04/25 03:32:38;;;;;;;0.60;0.60;;;;;;;;;;5046997;28;20204;-61
2022/04/25 03:35:25;;;;;;;0.80;0.80;;;;;;;;;;5051626;28;20296;-61
2022/04/25 03:38:14;;;;;;;0.57;0.57;;;;;;;;;;5052236;28;20696;-61
2022/04/25 03:41:01;;;;;;;0.73;0.73;;;;;;;;;;5047211;28;20620;-61
2022/04/25 03:43:48;;;;;;;0.60;0.60;;;;;;;;;;5054816;28;20254;-61
2022/04/25 03:46:35;;;;;;;0.70;0.70;;;;;;;;;;5049112;28;20718;-61
2022/04/25 03:49:22;;;;;;;0.70;0.70;;;;;;;;;;5049640;28;20286;-61
2022/04/25 03:52:09;;;;;;;0.70;0.70;;;;;;;;;;5053373;28;20214;-61
2022/04/25 03:58:05;;;;;;;0.70;0.70;;;;;;;;;;5037713;28;20334;-61
2022/04/25 04:00:53;;;;;;;0.70;0.70;;;;;;;;;;5047254;28;20235;-66
2022/04/25 04:03:40;;;;;;;0.60;0.60;;;;;;;;;;5048387;28;20293;-61
2022/04/25 04:06:27;;;;;;;0.73;0.73;;;;;;;;;;5053089;28;20204;-61
2022/04/25 04:12:21;;;;;;;0.70;0.70;;;;;;;;;;5049285;28;20207;-61
2022/04/25 04:15:08;;;;;;;0.77;0.77;;;;;;;;;;5048167;28;20641;-61
2022/04/25 04:17:55;;;;;;;0.60;0.60;;;;;;;;;;5054493;28;20232;-65
2022/04/25 04:20:42;;;;;;;0.70;0.70;;;;;;;;;;5049747;28;20204;-62
2022/04/25 04:23:29;;;;;;;0.90;0.90;;;;;;;;;;5049160;28;20297;-61
2022/04/25 04:26:16;;;;;;;0.67;0.67;;;;;;;;;;5049191;28;20212;-61
2022/04/25 04:29:04;;;;;;;0.60;0.60;;;;;;;;;;5051031;28;20783;-61
2022/04/25 04:31:51;;;;;;;0.70;0.70;;;;;;;;;;5047872;28;20204;-61
2022/04/25 04:34:38;;;;;;;0.67;0.67;;;;;;;;;;5049981;28;20211;-61
2022/04/25 04:37:26;;;;;;;0.67;0.67;;;;;;;;;;5049583;28;20223;-61
2022/04/25 04:40:31;;;;;;;1.17;0.77;;;;;;;;;;5048344;28;20294;-61
2022/04/25 04:43:18;;;;;;;0.50;0.50;;;;;;;;;;5050774;28;20235;-61
2022/04/25 04:46:06;;;;;;;0.80;0.80;;;;;;;;;;5052058;28;20409;-61
2022/04/25 04:48:53;;;;;;;0.80;0.80;;;;;;;;;;5049460;28;20307;-61
2022/04/25 04:51:40;;;;;;;0.73;0.73;;;;;;;;;;5050370;28;20259;-61
2022/04/25 04:54:27;;;;;;;0.80;0.80;;;;;;;;;;5050409;28;20219;-61
2022/04/25 04:57:14;;;;;;;0.90;0.90;;;;;;;;;;5049519;28;20331;-61
2022/04/25 05:00:01;;;;;;;0.60;0.60;;;;;;;;;;5054153;28;20298;-61
2022/04/25 05:02:49;;;;;;;1.07;0.73;;;;;;;;;;5050290;28;20205;-59
2022/04/25 05:05:36;;;;;;;0.70;0.70;;;;;;;;;;5050031;28;20242;-61
2022/04/25 05:08:23;;;;;;;0.90;0.90;;;;;;;;;;5055503;28;20247;-61
2022/04/25 05:11:11;;;;;;;0.90;0.90;;;;;;;;;;5054682;28;20701;-63
2022/04/25 05:13:58;;;;;;;0.80;0.80;;;;;;;;;;5051981;28;20201;-61
2022/04/25 05:16:45;;;;;;;1.03;0.70;;;;;;;;;;5056060;28;20213;-60
2022/04/25 05:19:33;;;;;;;1.53;0.77;;;;;;;;;;5054773;28;20616;-60
2022/04/25 05:22:20;;;;;;;0.80;0.80;;;;;;;;;;5051147;28;20784;-61
2022/04/25 05:25:08;;;;;;;1.50;0.90;;;;;;;;;;5051180;28;20292;-61
2022/04/25 05:27:56;;;;;;;0.83;0.70;;;;;;;;;;5053605;28;20242;-61
2022/04/25 05:30:44;;;;;;;0.83;0.83;;;;;;;;;;5049799;28;20314;-61
2022/04/25 05:33:31;;;;;;;1.27;0.80;;;;;;;;;;5051142;28;20271;-61
2022/04/25 05:36:19;;;;;;;0.90;0.90;;;;;;;;;;5050170;28;20740;-61
2022/04/25 05:39:06;;;;;;;0.80;0.80;;;;;;;;;;5050154;28;20288;-61
2022/04/25 05:41:53;;;;;;;1.37;0.80;;;;;;;;;;5050718;28;20257;-61
2022/04/25 05:44:40;;;;;;;1.10;1.10;;;;;;;;;;5055897;28;20206;-61
2022/04/25 05:47:27;;;;;;;0.83;0.83;;;;;;;;;;5051704;28;20696;-61
2022/04/25 05:53:20;;;;;;;1.43;1.10;;;;;;;;;;5047237;28;20225;-61
2022/04/25 05:56:07;;;;;;;0.60;0.60;;;;;;;;;;5061624;28;20210;-61
2022/04/25 05:58:54;;;;;;;2.20;0.98;;;;;;;;;;5050708;28;20693;-61
2022/04/25 06:01:41;;;;;;;1.00;1.00;;;;;;;;;;5049525;28;20233;-60
2022/04/25 06:04:28;;;;;;;0.85;0.80;;;;;;;;;;5054933;28;20209;-61
2022/04/25 06:07:15;;;;;;;0.80;0.80;;;;;;;;;;5051560;28;20215;-61
2022/04/25 06:10:04;;;;;;;1.13;1.10;;;;;;;;;;5050148;28;20609;-61
2022/04/25 06:12:53;;;;;;;1.10;1.00;;;;;;;;;;5053399;28;20211;-61
2022/04/25 06:15:40;;;;;;;1.23;0.70;;;;;;;;;;5049330;28;20207;-61
2022/04/25 06:18:27;;;;;;;0.90;0.90;;;;;;;;;;5054284;28;20344;-61
2022/04/25 06:21:14;;;;;;;0.63;0.63;;;;;;;;;;5053793;28;20648;-61
2022/04/25 06:24:01;;;;;;;0.90;0.90;;;;;;;;;;5050955;28;20288;-61
2022/04/25 06:26:49;;;;;;;0.70;0.70;;;;;;;;;;5049450;28;20286;-61
2022/04/25 06:29:36;;;;;;;0.70;0.70;;;;;;;;;;5051713;28;20279;-61
2022/04/25 06:32:24;;;;;;;0.80;0.80;;;;;;;;;;5050221;28;20218;-61
2022/04/25 06:35:11;;;;;;;0.90;0.90;;;;;;;;;;5056137;28;20627;-61
2022/04/25 06:37:58;;;;;;;0.80;0.80;;;;;;;;;;5054601;28;20235;-62
2022/04/25 06:40:45;;;;;;;0.68;0.68;;;;;;;;;;5052716;28;20240;-61
2022/04/25 06:43:36;;;;;;;0.75;0.75;;;;;;;;;;5051426;28;20231;-61
2022/04/25 06:46:23;;;;;;;0.70;0.70;;;;;;;;;;5049859;28;20789;-61
2022/04/25 06:52:11;;;;;;;0.70;0.70;;;;;;;;;;5053689;28;20286;-59
2022/04/25 06:54:58;;;;;;;0.90;0.90;;;;;;;;;;5052017;28;20745;-59
2022/04/25 06:57:45;;;;;;;0.73;0.70;;;;;;;;;;5049085;28;20380;-57
2022/04/25 07:00:33;;;;;;;0.82;0.82;;;;;;;;;;5052410;28;20338;-59
2022/04/25 07:03:21;;;;;;;0.90;0.90;;;;;;;;;;5052627;28;20287;-60
2022/04/25 07:06:08;;;;;;;0.60;0.60;;;;;;;;;;5049386;28;20208;-59
2022/04/25 07:08:55;;;;;;;0.80;0.80;;;;;;;;;;5053329;28;20373;-60
2022/04/25 07:11:43;;;;;;;0.95;0.95;;;;;;;;;;5049706;28;20203;-59
2022/04/25 07:14:33;;;;;;;0.52;0.52;;;;;;;;;;5048819;28;20215;-60
2022/04/25 07:17:21;;;;;;;0.80;0.80;;;;;;;;;;5057974;28;20237;-58
2022/04/25 07:20:09;;;;;;;0.65;0.65;;;;;;;;;;5049854;28;20679;-61
2022/04/25 07:29:05;;;;;;;0.50;0.50;;;;;;;;;;5052905;28;20625;-60
2022/04/25 07:31:52;;;;;;;0.70;0.70;;;;;;;;;;5051838;28;20208;-60
2022/04/25 07:34:41;;;;;;;0.40;0.40;;;;;;;;;;5048367;28;20284;-60
2022/04/25 07:37:28;;;;;;;0.60;0.60;;;;;;;;;;5048479;28;20253;-60
2022/04/25 07:40:15;;;;;;;0.70;0.70;;;;;;;;;;5049837;28;20243;-64
2022/04/25 07:43:03;;;;;;;1.60;0.90;;;;;;;;;;5048084;28;20223;-61
2022/04/25 07:45:50;;;;;;;0.60;0.60;;;;;;;;;;5048239;28;20292;-61
2022/04/25 07:48:38;;;;;;;0.68;0.68;;;;;;;;;;5048319;28;20294;-60
2022/04/25 07:51:26;;;;;;;0.57;0.57;;;;;;;;;;5048442;28;20730;-61
2022/04/25 07:54:14;;;;;;;0.50;0.50;;;;;;;;;;5047858;28;20715;-60
2022/04/25 07:57:01;;;;;;;0.85;0.65;;;;;;;;;;5051958;28;20588;-61
2022/04/25 07:59:48;;;;;;;0.70;0.63;;;;;;;;;;5050785;28;20215;-61
2022/04/25 08:02:35;;;;;;;0.73;0.70;;;;;;;;;;5057166;28;20265;-60
2022/04/25 08:05:22;;;;;;;0.75;0.60;;;;;;;;;;5048817;28;20270;-60
2022/04/25 08:08:11;;;;;;;0.60;0.60;;;;;;;;;;5049046;28;20215;-61
2022/04/25 08:10:57;;;;;;;0.55;0.55;;;;;;;;;;5050117;28;20330;-60
2022/04/25 08:19:53;;;;;;;0.40;0.40;;;;;;;;;;5048702;28;20195;-60
2022/04/25 08:22:40;;;;;;;0.70;0.70;;;;;;;;;;5049347;28;20293;-60
2022/04/25 08:25:30;;;;;;;0.52;0.52;;;;;;;;;;5049099;28;20270;-59
2022/04/25 08:28:19;;;;;;;0.50;0.50;;;;;;;;;;5048778;28;20715;-58
2022/04/25 08:31:09;;;;;;;0.40;0.40;;;;;;;;;;5053500;28;20239;-58
2022/04/25 08:33:56;;;;;;;0.60;0.60;;;;;;;;;;5048739;28;20477;-58
2022/04/25 08:36:44;;;;;;;0.60;0.60;;;;;;;;;;5053408;28;20204;-58
2022/04/25 08:39:31;;;;;;;0.30;0.30;;;;;;;;;;5052742;28;20346;-58
2022/04/25 08:42:20;;;;;;;0.65;0.65;;;;;;;;;;5062195;28;20211;-58
2022/04/25 08:45:08;;;;;;;0.52;0.52;;;;;;;;;;5052440;28;20322;-58
2022/04/25 08:47:58;;;;;;;0.77;0.77;;;;;;;;;;5052187;28;20207;-60
2022/04/25 08:50:47;;;;;;;0.60;0.60;;;;;;;;;;5056547;28;20998;-59
2022/04/25 08:53:37;;;;;;;0.52;0.52;;;;;;;;;;5051545;28;20354;-59
2022/04/25 08:56:26;;;;;;;0.50;0.50;;;;;;;;;;5052191;28;20247;-59
2022/04/25 08:59:14;;;;;;;0.50;0.50;;;;;;;;;;5051616;28;20668;-59
2022/04/25 09:02:01;;;;;;;0.55;0.55;;;;;;;;;;5060495;28;20315;-59
2022/04/25 09:04:50;;;;;;;0.73;0.73;;;;;;;;;;5052783;28;20722;-59
2022/04/25 09:07:38;;;;;;;0.95;0.70;;;;;;;;;;5052408;28;20295;-61
2022/04/25 09:10:28;;;;;;;0.60;0.60;;;;;;;;;;5052889;28;20368;-61
2022/04/25 09:13:15;;;;;;;0.65;0.65;;;;;;;;;;5053162;28;20251;-62
2022/04/25 09:16:05;;;;;;;0.98;0.98;;;;;;;;;;5050855;28;20704;-61
2022/04/25 09:18:52;;;;;;;0.70;0.70;;;;;;;;;;5051727;28;20212;-61
2022/04/25 09:21:44;;;;;;;0.80;0.80;;;;;;;;;;5054121;28;20322;-60
2022/04/25 09:24:33;;;;;;;0.80;0.80;;;;;;;;;;5050507;28;20745;-61
2022/04/25 09:27:23;;;;;;;0.70;0.70;;;;;;;;;;5051691;28;20215;-61
2022/04/25 09:30:16;;;;;;;0.60;0.60;;;;;;;;;;5054808;28;20260;-61
2022/04/25 09:33:04;;;;;;;0.70;0.70;;;;;;;;;;5050221;28;20590;-61
2022/04/25 09:35:54;;;;;;;0.60;0.60;;;;;;;;;;5049904;28;20596;-60
2022/04/25 09:38:42;;;;;;;0.85;0.60;;;;;;;;;;5050684;28;20271;-61
2022/04/25 09:41:33;;;;;;;0.88;0.88;;;;;;;;;;5062709;28;20293;-61
2022/04/25 09:44:20;;;;;;;0.77;0.77;;;;;;;;;;5054469;28;20215;-61
2022/04/25 09:47:08;;;;;;;0.65;0.65;;;;;;;;;;5049160;28;20657;-60
2022/04/25 09:50:01;;;;;;;0.70;0.70;;;;;;;;;;5051030;28;20221;-61
2022/04/25 09:52:53;;;;;;;0.60;0.60;;;;;;;;;;5058724;28;20654;-60
2022/04/25 09:55:41;;;;;;;0.50;0.50;;;;;;;;;;5052600;28;20218;-60
2022/04/25 09:58:29;;;;;;;0.57;0.52;;;;;;;;;;5050420;28;20207;-61
2022/04/25 10:01:15;;;;;;;0.60;0.60;;;;;;;;;;5052694;28;20196;-61
2022/04/25 10:04:03;;;;;;;0.60;0.60;;;;;;;;;;5051669;28;20298;-61
2022/04/25 10:06:52;;;;;;;0.40;0.40;;;;;;;;;;5053965;28;20279;-61
2022/04/25 10:09:41;;;;;;;0.80;0.80;;;;;;;;;;5050464;28;20685;-61
2022/04/25 10:12:28;;;;;;;0.50;0.50;;;;;;;;;;5050428;28;20311;-61
2022/04/25 10:15:15;;;;;;;0.50;0.50;;;;;;;;;;5052837;28;20283;-60
2022/04/25 10:18:04;;;;;;;0.43;0.43;;;;;;;;;;5050498;28;20733;-61
2022/04/25 10:20:51;;;;;;;0.60;0.60;;;;;;;;;;5056182;28;20739;-61
2022/04/25 10:23:40;;;;;;;0.70;0.70;;;;;;;;;;5051297;28;20733;-60
2022/04/25 10:26:28;;;;;;;0.80;0.80;;;;;;;;;;5049233;28;20293;-60
2022/04/25 10:29:19;;;;;;;0.50;0.50;;;;;;;;;;5049990;28;20272;-61
2022/04/25 10:32:08;;;;;;;0.82;0.82;;;;;;;;;;5049487;28;20282;-59
2022/04/25 10:34:59;;;;;;;0.70;0.70;;;;;;;;;;5049577;28;20623;-60
2022/04/25 10:37:46;;;;;;;0.47;0.47;;;;;;;;;;5051860;28;20234;-59
2022/04/25 10:47:13;;;;;;;0.40;0.40;;;;;;;;;;5048655;28;20271;-60
2022/04/25 10:50:04;;;;;;;0.60;0.60;;;;;;;;;;5047015;28;20308;-60
2022/04/25 10:52:55;;;;;;;0.50;0.50;;;;;;;;;;5058445;28;20222;-60
2022/04/25 10:55:46;;;;;;;0.47;0.47;;;;;;;;;;5055756;28;20210;-60
2022/04/25 10:58:34;;;;;;;0.55;0.55;;;;;;;;;;5047943;28;20697;-61
2022/04/25 11:01:31;;;;;;;0.73;0.63;;;;;;;;;;5048466;28;20208;-60
2022/04/25 11:04:19;;;;;;;0.70;0.70;;;;;;;;;;5049128;28;20222;-60
2022/04/25 11:07:24;;;;;;;0.68;0.68;;;;;;;;;;5049890;28;20659;-60
2022/04/25 11:10:44;;;;;;;0.68;0.68;;;;;;;;;;5049452;28;20243;-60
2022/04/25 11:13:33;;;;;;;0.50;0.50;;;;;;;;;;5048893;28;20210;-60
2022/04/25 11:16:23;;;;;;;0.70;0.70;;;;;;;;;;5046749;28;20241;-60
2022/04/25 11:19:16;;;;;;;0.50;0.50;;;;;;;;;;5050389;28;20590;-65
2022/04/25 11:22:03;;;;;;;0.60;0.60;;;;;;;;;;5047763;28;20444;-61
2022/04/25 11:24:50;;;;;;;0.50;0.50;;;;;;;;;;5051805;28;20688;-60
2022/04/25 11:28:02;;;;;;;0.70;0.70;;;;;;;;;;5048262;28;20806;-61
2022/04/25 11:31:20;;;;;;;0.50;0.50;;;;;;;;;;5048046;28;20232;-60
2022/04/25 11:34:11;;;;;;;0.68;0.68;;;;;;;;;;5059617;28;20205;-59
2022/04/25 11:36:58;;;;;;;0.88;0.88;;;;;;;;;;5050026;28;20217;-60
2022/04/25 11:39:59;;;;;;;0.68;0.68;;;;;;;;;;5048408;28;20729;-60
2022/04/25 11:42:45;;;;;;;0.65;0.65;;;;;;;;;;5049591;28;20209;-60
2022/04/25 11:45:34;;;;;;;0.70;0.70;;;;;;;;;;5050618;28;20246;-60
2022/04/25 11:48:22;;;;;;;0.75;0.75;;;;;;;;;;5049917;28;20217;-60
2022/04/25 11:51:09;;;;;;;0.75;0.75;;;;;;;;;;5049823;28;20224;-61
2022/04/25 11:53:58;;;;;;;0.90;0.90;;;;;;;;;;5048713;28;20322;-61
2022/04/25 11:56:45;;;;;;;0.73;0.73;;;;;;;;;;5051046;28;20606;-60
2022/04/25 11:59:32;;;;;;;0.80;0.80;;;;;;;;;;5048418;28;20225;-61
2022/04/25 12:02:21;;;;;;;0.87;0.87;;;;;;;;;;5048347;28;20209;-61
2022/04/25 12:05:09;;;;;;;0.90;0.90;;;;;;;;;;5056559;28;20226;-63
2022/04/25 12:17:10;;;;;;;1.17;0.80;;;;;;;;;;5055062;28;20219;-61
2022/04/25 12:20:02;;;;;;;0.80;0.80;;;;;;;;;;5053001;28;20236;-62
2022/04/25 12:22:54;;;;;;;1.10;1.10;;;;;;;;;;5051482;28;20729;-62
2022/04/25 12:25:43;;;;;;;1.00;1.00;;;;;;;;;;5053609;28;20235;-61
2022/04/25 12:28:31;;;;;;;0.80;0.80;;;;;;;;;;5051365;28;20563;-61
2022/04/25 12:31:20;;;;;;;1.23;1.20;;;;;;;;;;5051182;28;20238;-61
2022/04/25 12:34:09;;;;;;;1.23;1.23;;;;;;;;;;5054611;28;20205;-59
2022/04/25 12:37:00;;;;;;;1.20;1.20;;;;;;;;;;5052693;28;20217;-61
2022/04/25 12:40:02;;;;;;;1.20;1.20;;;;;;;;;;5053303;28;20259;-61
2022/04/25 12:42:54;;;;;;;1.20;1.20;;;;;;;;;;5050842;28;20216;-60
2022/04/25 12:45:51;;;;;;;1.47;1.40;;;;;;;;;;5064108;28;20318;-61
2022/04/25 12:49:01;;;;;;;1.70;1.60;;;;;;;;;;5053708;28;20203;-61
2022/04/25 12:52:00;;;;;;;1.40;1.40;;;;;;;;;;5050887;28;20314;-60
2022/04/25 12:54:50;;;;;;;1.70;1.60;;;;;;;;;;5053837;28;21071;-61
2022/04/25 12:57:37;;;;;;;1.67;1.63;;;;;;;;;;5051820;28;20263;-61
2022/04/25 13:00:26;;;;;;;1.80;1.70;;;;;;;;;;5051257;28;20297;-61
2022/04/25 13:03:13;;;;;;;2.30;1.80;;;;;;;;;;5052556;28;20210;-61
2022/04/25 13:06:00;;;;;;;2.03;1.93;;;;;;;;;;5051697;28;20586;-64
2022/04/25 13:08:51;;;;;;;2.03;1.93;;;;;;;;;;5051586;28;20222;-60
2022/04/25 13:11:39;;;;;;;2.10;2.00;;;;;;;;;;5051859;28;20780;-60
2022/04/25 13:14:26;;;;;;;2.00;1.90;;;;;;;;;;5058011;28;20562;-60
2022/04/25 13:17:13;;;;;;;2.50;2.40;;;;;;;;;;5051451;28;20321;-60
2022/04/25 13:20:00;;;;;;;2.10;2.00;;;;;;;;;;5052062;28;20309;-60
2022/04/25 13:22:48;;;;;;;1.83;1.73;;;;;;;;;;5053023;28;20564;-59
2022/04/25 13:25:37;;;;;;;2.10;2.00;;;;;;;;;;5049299;28;20212;-60
2022/04/25 13:28:23;;;;;;;2.27;2.17;;;;;;;;;;5052238;28;20284;-61
2022/04/25 13:31:10;;;;;;;1.90;1.80;;;;;;;;;;5055622;28;20214;-61
2022/04/25 13:33:59;;;;;;;1.93;1.83;;;;;;;;;;5052518;28;20214;-60
2022/04/25 13:36:45;;;;;;;2.40;2.30;;;;;;;;;;5051253;28;21290;-60
2022/04/25 13:39:33;;;;;;;2.03;1.93;;;;;;;;;;5055393;28;20360;-62
2022/04/25 13:42:21;;;;;;;2.47;2.37;;;;;;;;;;5049813;28;20683;-60
2022/04/25 13:45:08;;;;;;;2.07;1.97;;;;;;;;;;5056393;28;20475;-60
2022/04/25 13:47:55;;;;;;;2.10;2.00;;;;;;;;;;5052204;28;20204;-61
2022/04/25 13:50:43;;;;;;;2.17;2.00;;;;;;;;;;5050550;28;20209;-60
2022/04/25 13:53:30;;;;;;;2.20;2.10;;;;;;;;;;5050407;28;20225;-60
2022/04/25 13:56:19;;;;;;;2.07;1.97;;;;;;;;;;5054907;28;20214;-59
2022/04/25 13:59:07;;;;;;;1.90;1.80;;;;;;;;;;5053102;28;20242;-60
2022/04/25 14:01:54;;;;;;;2.13;2.03;;;;;;;;;;5053440;28;20213;-61
2022/04/25 14:04:41;;;;;;;1.83;1.73;;;;;;;;;;5052924;28;20216;-61
2022/04/25 14:07:28;;;;;;;1.80;1.70;;;;;;;;;;5054527;28;20219;-60
2022/04/25 14:10:15;;;;;;;1.93;1.83;;;;;;;;;;5053394;28;20219;-61
2022/04/25 14:13:02;;;;;;;2.47;2.17;;;;;;;;;;5054352;28;20230;-61
2022/04/25 14:15:51;;;;;;;1.73;1.60;;;;;;;;;;5051227;28;20250;-60
2022/04/25 14:18:39;;;;;;;1.93;1.83;;;;;;;;;;5052493;28;20227;-61
2022/04/25 14:21:26;;;;;;;1.93;1.70;;;;;;;;;;5051937;28;20212;-60
2022/04/25 14:24:13;;;;;;;1.47;1.47;;;;;;;;;;5054641;28;20297;-60
2022/04/25 14:27:00;;;;;;;2.10;1.93;;;;;;;;;;5051043;28;20292;-61
2022/04/25 14:29:47;;;;;;;1.90;1.80;;;;;;;;;;5052356;28;20615;-62
2022/04/25 14:32:36;;;;;;;1.50;1.50;;;;;;;;;;5051672;28;20231;-61
2022/04/25 14:35:28;;;;;;;1.90;1.80;;;;;;;;;;5050604;28;20305;-61
2022/04/25 14:38:18;;;;;;;1.50;1.40;;;;;;;;;;5055142;28;20967;-60
2022/04/25 14:41:05;;;;;;;1.90;1.80;;;;;;;;;;5049564;28;20554;-60
2022/04/25 14:43:52;;;;;;;1.97;1.87;;;;;;;;;;5046381;28;20230;-61
2022/04/25 14:46:39;;;;;;;1.80;1.70;;;;;;;;;;5050646;28;20253;-60
2022/04/25 14:55:32;;;;;;;1.70;1.60;;;;;;;;;;5049277;28;20234;-60
2022/04/25 14:58:19;;;;;;;2.10;2.00;;;;;;;;;;5052167;28;20284;-61
2022/04/25 15:01:06;;;;;;;2.23;2.03;;;;;;;;;;5050936;28;20254;-61
2022/04/25 15:03:53;;;;;;;1.80;1.80;;;;;;;;;;5049455;28;20292;-62
2022/04/25 15:06:42;;;;;;;1.90;1.80;;;;;;;;;;5052111;28;20253;-62
2022/04/25 15:09:29;;;;;;;2.40;2.30;;;;;;;;;;5048851;28;20206;-61
2022/04/25 15:12:16;;;;;;;2.00;1.90;;;;;;;;;;5050842;28;20376;-61
2022/04/25 15:15:04;;;;;;;2.30;2.20;;;;;;;;;;5050068;28;20293;-61
2022/04/25 15:17:51;;;;;;;2.23;2.13;;;;;;;;;;5048168;28;20209;-61
2022/04/25 15:20:39;;;;;;;2.30;2.20;;;;;;;;;;5049972;28;20323;-60
2022/04/25 15:23:28;;;;;;;2.20;2.10;;;;;;;;;;5052374;28;20419;-61
2022/04/25 15:26:15;;;;;;;1.90;1.80;;;;;;;;;;5048883;28;20216;-61
2022/04/25 15:29:02;;;;;;;2.10;2.00;;;;;;;;;;5047328;28;20215;-60
2022/04/25 15:31:49;;;;;;;2.00;1.80;;;;;;;;;;5047737;28;20440;-60
2022/04/25 15:34:36;;;;;;;2.10;2.00;;;;;;;;;;5050251;28;20215;-61
2022/04/25 15:37:25;;;;;;;1.63;1.57;;;;;;;;;;5050047;28;20231;-62
2022/04/25 15:40:14;;;;;;;1.83;1.73;;;;;;;;;;5047777;28;20213;-61
2022/04/25 15:43:01;;;;;;;1.87;1.77;;;;;;;;;;5049322;28;20281;-61
2022/04/25 15:45:48;;;;;;;1.47;1.47;;;;;;;;;;5047679;28;20233;-61
2022/04/25 15:48:35;;;;;;;2.07;1.93;;;;;;;;;;5049017;28;20206;-61
2022/04/25 15:51:22;;;;;;;1.53;1.53;;;;;;;;;;5055195;28;20297;-61
2022/04/25 16:00:24;;;;;;;1.93;1.83;;;;;;;;;;5050003;28;20204;-61
2022/04/25 16:03:11;;;;;;;1.93;1.83;;;;;;;;;;5054895;28;20207;-62
2022/04/25 16:05:59;;;;;;;1.70;1.70;;;;;;;;;;5049887;28;20212;-61
2022/04/25 16:08:46;;;;;;;2.10;2.00;;;;;;;;;;5049882;28;20212;-59
2022/04/25 16:11:34;;;;;;;1.80;1.70;;;;;;;;;;5049532;28;20356;-62
2022/04/25 16:14:22;;;;;;;2.00;1.90;;;;;;;;;;5048027;28;20212;-61
2022/04/25 16:17:09;;;;;;;1.70;1.60;;;;;;;;;;5049078;28;20219;-61
2022/04/25 16:19:56;;;;;;;1.77;1.67;;;;;;;;;;5048739;28;20244;-62
2022/04/25 16:22:44;;;;;;;1.50;1.50;;;;;;;;;;5047882;28;20199;-61
2022/04/25 16:25:32;;;;;;;2.10;1.70;;;;;;;;;;5050439;28;20204;-61
2022/04/25 16:28:19;;;;;;;1.80;1.70;;;;;;;;;;5047172;28;20562;-60
2022/04/25 16:31:07;;;;;;;1.70;1.60;;;;;;;;;;5049527;28;20196;-61
2022/04/25 16:33:54;;;;;;;1.70;1.60;;;;;;;;;;5050085;28;20707;-61
2022/04/25 16:36:44;;;;;;;1.50;1.50;;;;;;;;;;5048209;28;20317;-61
2022/04/25 16:39:33;;;;;;;1.70;1.60;;;;;;;;;;5049533;28;20219;-61
2022/04/25 16:42:20;;;;;;;1.30;1.30;;;;;;;;;;5047767;28;20210;-61
2022/04/25 16:45:08;;;;;;;1.20;1.20;;;;;;;;;;5049122;28;20211;-62
2022/04/25 16:47:56;;;;;;;1.10;1.10;;;;;;;;;;5049233;28;20218;-62
2022/04/25 16:50:43;;;;;;;1.70;1.60;;;;;;;;;;5050990;28;20210;-61
2022/04/25 16:53:30;;;;;;;1.23;1.23;;;;;;;;;;5046896;28;20794;-61
2022/04/25 16:56:20;;;;;;;1.20;1.20;;;;;;;;;;5051481;28;20232;-61
2022/04/25 16:59:07;;;;;;;1.40;1.40;;;;;;;;;;5050541;28;20358;-61
2022/04/25 17:01:54;;;;;;;1.30;1.27;;;;;;;;;;5050830;28;20260;-61
2022/04/25 17:04:42;;;;;;;1.30;1.20;;;;;;;;;;5059960;28;20337;-61
2022/04/25 17:07:29;;;;;;;1.27;1.23;;;;;;;;;;5053723;28;20212;-61
2022/04/25 17:10:17;;;;;;;1.30;1.30;;;;;;;;;;5052804;28;20270;-61
2022/04/25 17:13:04;;;;;;;1.47;1.37;;;;;;;;;;5052331;28;20231;-61
2022/04/25 17:15:52;;;;;;;1.27;1.27;;;;;;;;;;5050585;28;20338;-61
2022/04/25 17:18:39;;;;;;;1.30;1.30;;;;;;;;;;5052436;28;20208;-61
2022/04/25 17:21:27;;;;;;;1.63;1.60;;;;;;;;;;5052557;28;20303;-61
2022/04/25 17:24:14;;;;;;;1.70;1.60;;;;;;;;;;5050871;28;20290;-61
2022/04/25 17:27:01;;;;;;;3.17;2.00;;;;;;;;;;5054269;28;20239;-61
2022/04/25 17:29:50;;;;;;;2.00;1.90;;;;;;;;;;5050930;28;20340;-61
2022/04/25 17:35:44;;;;;;;2.43;2.23;;;;;;;;;;5053304;28;20210;-61
